LRSV/SCV METAR and TAF weather

Enter ICAO airport designator
Station Type Date Time Source
LRSV METAR 2020/01/18 15:30 UTC NOAA

LRSV 181530Z 17008KT 7000 BKN006 M02/M02 Q1024


Station Type Date Time Source
LRSV Decoded METAR 2020/01/18 15:30 UTC NOAA

Suceava / Salcea, Romania (LRSV) 47-39N 026-15E 351M
Jan 18, 2020 - 10:30 AM EST / 2020.01.18 1530 UTC
Wind: from the S (170 degrees) at 9 MPH (8 KT):0
Visibility: 4 mile(s):0
Sky conditions: mostly cloudy
Temperature: 28 F (-2 C)
Windchill: 19 F (-7 C):1
Dew Point: 28 F (-2 C)
Relative Humidity: 100%
Pressure (altimeter): 30.24 in. Hg (1024 hPa)
ob: LRSV 181530Z 17008KT 7000 BKN006 M02/M02 Q1024
cycle: 15

Station Type Date Time Source
LRSV TAF 2014/07/19 18:48 UTC NOAA

TAF LRSV 191800Z 1918/2024 CNL

Example: see airport list